createdAt,value
2023-05-05T00:01:36.071Z,100978.59
2023-05-05T00:04:40.059Z,100978.80
2023-05-05T00:07:44.068Z,100971.16
2023-05-05T00:10:50.739Z,100969.81
2023-05-05T00:13:54.867Z,100970.61
2023-05-05T00:16:59.788Z,100971.02
2023-05-05T00:20:04.737Z,100969.71
2023-05-05T00:23:08.756Z,100969.93
2023-05-05T00:26:13.207Z,100970.80
2023-05-05T00:29:18.026Z,100973.71
2023-05-05T00:32:22.585Z,100967.95
2023-05-05T00:35:27.302Z,100966.02
2023-05-05T00:38:31.856Z,100966.48
2023-05-05T00:41:36.136Z,100964.93
2023-05-05T00:44:41.858Z,100964.55
2023-05-05T00:47:58.113Z,100964.13
2023-05-05T00:51:02.220Z,100959.90
2023-05-05T00:54:06.221Z,100957.52
2023-05-05T00:57:10.943Z,100955.13
2023-05-05T01:00:15.664Z,100958.88
2023-05-05T01:03:19.812Z,100961.23
2023-05-05T01:06:48.193Z,100961.96
2023-05-05T01:10:19.670Z,100965.55
2023-05-05T01:13:52.542Z,100964.25
2023-05-05T01:17:00.559Z,100965.02
2023-05-05T01:20:33.673Z,100959.67
2023-05-05T01:24:02.546Z,100958.84
2023-05-05T01:27:18.449Z,100959.33
2023-05-05T01:30:50.833Z,100956.56
2023-05-05T01:34:08.770Z,100954.65
2023-05-05T01:37:23.133Z,100951.46
2023-05-05T01:40:31.986Z,100942.38
2023-05-05T01:43:38.015Z,100941.91
2023-05-05T01:46:42.096Z,100939.55
2023-05-05T01:49:47.906Z,100937.48
2023-05-05T01:52:53.772Z,100944.18
2023-05-05T01:55:58.458Z,100943.02
2023-05-05T01:59:04.152Z,100937.56
2023-05-05T02:02:11.844Z,100934.77
2023-05-05T02:05:19.585Z,100929.34
2023-05-05T02:08:26.067Z,100932.77
2023-05-05T02:11:31.114Z,100932.55
2023-05-05T02:14:37.015Z,100936.33
2023-05-05T02:17:43.457Z,100930.33
2023-05-05T02:20:47.792Z,100926.77
2023-05-05T02:23:52.842Z,100934.30
2023-05-05T02:26:58.381Z,100933.81
2023-05-05T02:30:07.129Z,100927.21
2023-05-05T02:33:14.328Z,100923.59
2023-05-05T02:36:21.926Z,100922.65
2023-05-05T02:39:41.098Z,100931.52
2023-05-05T02:42:50.493Z,100922.95
2023-05-05T02:45:55.657Z,100927.09
2023-05-05T02:48:59.910Z,100924.95
2023-05-05T02:52:04.659Z,100930.56
2023-05-05T02:55:12.298Z,100928.45
2023-05-05T02:58:46.248Z,100924.59
2023-05-05T03:02:18.223Z,100917.17
2023-05-05T03:05:25.317Z,100915.73
2023-05-05T03:08:44.284Z,100916.58
2023-05-05T03:11:58.333Z,100916.11
2023-05-05T03:15:02.701Z,100914.44
2023-05-05T03:18:08.991Z,100918.38
2023-05-05T03:21:13.451Z,100913.67
2023-05-05T03:24:20.407Z,100915.86
2023-05-05T03:27:34.382Z,100915.77
2023-05-05T03:30:39.110Z,100917.73
2023-05-05T03:33:43.191Z,100916.79
2023-05-05T03:36:47.222Z,100912.93
2023-05-05T03:39:52.291Z,100911.10
2023-05-05T03:42:56.414Z,100912.84
2023-05-05T03:46:00.621Z,100910.63
2023-05-05T03:49:05.563Z,100907.52
2023-05-05T03:52:09.880Z,100907.30
2023-05-05T03:55:14.747Z,100909.11
2023-05-05T03:58:18.843Z,100911.25
2023-05-05T04:01:23.574Z,100914.58
2023-05-05T04:04:28.169Z,100915.14
2023-05-05T04:07:32.712Z,100909.46
2023-05-05T04:10:36.863Z,100913.85
2023-05-05T04:13:41.980Z,100916.59
2023-05-05T04:16:46.192Z,100917.54
2023-05-05T04:19:50.644Z,100915.97
2023-05-05T04:22:54.918Z,100912.65
2023-05-05T04:25:59.305Z,100916.21
2023-05-05T04:29:03.609Z,100921.00
2023-05-05T04:32:07.660Z,100922.45
2023-05-05T04:35:11.741Z,100920.33
2023-05-05T04:38:16.167Z,100924.47
2023-05-05T04:41:21.422Z,100928.92
2023-05-05T04:44:25.837Z,100934.35
2023-05-05T04:47:29.837Z,100937.39
2023-05-05T04:50:33.962Z,100940.11
2023-05-05T04:53:39.209Z,100938.84
2023-05-05T04:56:43.207Z,100943.67
2023-05-05T04:59:47.246Z,100944.89
2023-05-05T05:02:52.643Z,100944.52
2023-05-05T05:05:56.757Z,100940.13
2023-05-05T05:09:00.837Z,100942.41
2023-05-05T05:12:05.956Z,100946.52
2023-05-05T05:15:11.108Z,100944.28
2023-05-05T05:18:15.074Z,100945.52
2023-05-05T05:21:19.298Z,100948.70
2023-05-05T05:24:24.926Z,100948.65
2023-05-05T05:27:29.532Z,100953.64
2023-05-05T05:30:34.473Z,100953.63
2023-05-05T05:33:39.205Z,100956.72
2023-05-05T05:36:43.610Z,100964.90
2023-05-05T05:39:53.780Z,100968.35
2023-05-05T05:42:58.538Z,100974.27
2023-05-05T05:46:05.033Z,100973.23
2023-05-05T05:49:10.786Z,100969.49
2023-05-05T05:52:14.850Z,100971.16
2023-05-05T05:55:18.806Z,100971.91
2023-05-05T05:58:23.009Z,100977.05
2023-05-05T06:01:27.491Z,100972.61
2023-05-05T06:04:31.789Z,100975.55
2023-05-05T06:07:36.998Z,100975.85
2023-05-05T06:10:41.712Z,100974.11
2023-05-05T06:13:48.700Z,100976.20
2023-05-05T06:16:53.850Z,100974.12
2023-05-05T06:19:58.990Z,100978.23
2023-05-05T06:23:03.116Z,100976.02
2023-05-05T06:26:09.266Z,100977.42
2023-05-05T06:29:13.296Z,100974.37
2023-05-05T06:32:17.410Z,100975.95
2023-05-05T06:35:22.377Z,100973.85
2023-05-05T06:38:26.369Z,100973.33
2023-05-05T06:41:30.382Z,100971.79
2023-05-05T06:44:36.476Z,100971.16
2023-05-05T06:47:40.497Z,100974.66
2023-05-05T06:50:45.268Z,100974.89
2023-05-05T06:53:49.314Z,100980.20
2023-05-05T06:56:53.326Z,100983.48
2023-05-05T06:59:57.278Z,100984.79
2023-05-05T07:03:01.698Z,100986.59
2023-05-05T07:06:06.096Z,100984.14
2023-05-05T07:09:10.033Z,100983.50
2023-05-05T07:12:14.135Z,100983.23
2023-05-05T07:15:27.336Z,100980.08
2023-05-05T07:18:33.234Z,100984.14
2023-05-05T07:21:37.233Z,100987.63
2023-05-05T07:24:41.248Z,100987.63
2023-05-05T07:27:45.469Z,100984.77
2023-05-05T07:30:49.490Z,100984.16
2023-05-05T07:33:53.750Z,100988.22
2023-05-05T07:36:57.794Z,100983.16
2023-05-05T07:40:01.763Z,100986.05
2023-05-05T07:43:05.814Z,100987.96
2023-05-05T07:46:09.889Z,100991.35
2023-05-05T07:49:13.981Z,100989.29
2023-05-05T07:52:18.006Z,100993.04
2023-05-05T07:55:22.028Z,100993.20
2023-05-05T07:58:26.134Z,100990.85
2023-05-05T08:01:30.255Z,100990.90
2023-05-05T08:04:34.285Z,100991.42
2023-05-05T08:07:41.616Z,100986.85
2023-05-05T08:10:45.989Z,100988.23
2023-05-05T08:13:50.113Z,100982.19
2023-05-05T08:16:54.127Z,100984.42
2023-05-05T08:19:58.142Z,100984.14
2023-05-05T08:23:02.126Z,100991.32
2023-05-05T08:26:06.870Z,100987.66
2023-05-05T08:29:10.781Z,100986.61
2023-05-05T08:32:16.343Z,100989.91
2023-05-05T08:35:20.578Z,100989.18
2023-05-05T08:38:24.724Z,100990.69
2023-05-05T08:41:29.017Z,100986.69
2023-05-05T08:44:33.791Z,100981.71
2023-05-05T08:47:39.175Z,100983.65
2023-05-05T08:50:47.833Z,100984.27
2023-05-05T08:53:54.805Z,100982.75
2023-05-05T08:57:02.159Z,100979.98
2023-05-05T09:00:09.864Z,100976.12
2023-05-05T09:03:15.627Z,100976.33
2023-05-05T09:06:25.816Z,100975.16
2023-05-05T09:09:30.936Z,100979.15
2023-05-05T09:12:35.614Z,100977.32
2023-05-05T09:15:41.465Z,100978.91
2023-05-05T09:18:46.013Z,100981.66
2023-05-05T09:21:50.091Z,100981.24
2023-05-05T09:24:55.350Z,100978.45
2023-05-05T09:27:59.355Z,100983.00
2023-05-05T09:31:16.069Z,100982.23
2023-05-05T09:34:20.497Z,100978.65
2023-05-05T09:37:31.377Z,100976.83
2023-05-05T09:40:48.916Z,100983.04
2023-05-05T09:43:53.029Z,100978.70
2023-05-05T09:46:58.307Z,100982.28
2023-05-05T09:50:03.117Z,100980.46
2023-05-05T09:53:08.140Z,100982.77
2023-05-05T09:56:12.463Z,100977.71
2023-05-05T09:59:16.522Z,100979.30
2023-05-05T10:02:20.631Z,100974.86
2023-05-05T10:05:24.779Z,100972.77
2023-05-05T10:08:31.565Z,100964.71
2023-05-05T10:11:36.453Z,100963.58
2023-05-05T10:14:41.440Z,100961.04
2023-05-05T10:20:58.475Z,100964.80
2023-05-05T10:24:09.462Z,100963.94
2023-05-05T10:27:19.744Z,100967.54
2023-05-05T10:30:34.628Z,100964.71
2023-05-05T10:33:53.948Z,100954.00
2023-05-05T10:37:00.532Z,100953.38
2023-05-05T10:40:05.967Z,100949.20
2023-05-05T10:43:11.160Z,100953.77
2023-05-05T10:46:15.507Z,100954.87
2023-05-05T10:49:43.167Z,100953.65
2023-05-05T10:53:08.066Z,100950.77
2023-05-05T10:56:22.235Z,100950.65
2023-05-05T10:59:39.197Z,100948.52
2023-05-05T11:02:43.849Z,100943.30
2023-05-05T11:06:03.712Z,100941.63
2023-05-05T11:09:28.180Z,100942.82
2023-05-05T11:12:53.206Z,100940.22
2023-05-05T11:15:59.337Z,100933.63
2023-05-05T11:19:42.307Z,100933.23
2023-05-05T11:23:21.949Z,100931.28
2023-05-05T11:26:49.609Z,100939.00
2023-05-05T11:30:10.317Z,100934.80
2023-05-05T11:33:28.686Z,100941.00
2023-05-05T11:36:40.975Z,100940.52
2023-05-05T11:40:13.950Z,100945.18
2023-05-05T11:43:20.934Z,100939.90
2023-05-05T11:46:25.006Z,100944.12
2023-05-05T11:49:33.022Z,100931.50
2023-05-05T11:52:37.005Z,100940.71
2023-05-05T11:55:41.295Z,100941.69
2023-05-05T11:58:49.208Z,100941.58
2023-05-05T12:01:53.388Z,100939.38
2023-05-05T12:04:59.181Z,100934.64
2023-05-05T12:08:03.402Z,100932.95
2023-05-05T12:11:11.110Z,100933.47
2023-05-05T12:14:15.138Z,100930.74
2023-05-05T12:17:21.464Z,100935.91
2023-05-05T12:20:33.316Z,100934.60
2023-05-05T12:23:38.639Z,100938.09
2023-05-05T12:26:42.596Z,100936.52
2023-05-05T12:29:46.673Z,100931.77
2023-05-05T12:32:51.523Z,100943.02
2023-05-05T12:35:55.395Z,100940.39
2023-05-05T12:38:59.746Z,100940.60
2023-05-05T12:42:04.589Z,100939.05
2023-05-05T12:45:17.454Z,100936.57
2023-05-05T12:48:22.509Z,100935.69
2023-05-05T12:51:27.171Z,100939.64
2023-05-05T12:54:31.113Z,100944.85
2023-05-05T12:57:35.090Z,100949.75
2023-05-05T13:00:39.198Z,100944.95
2023-05-05T13:03:43.321Z,100946.92
2023-05-05T13:06:49.193Z,100946.16
2023-05-05T13:10:07.157Z,100949.66
2023-05-05T13:13:11.129Z,100956.14
2023-05-05T13:16:15.252Z,100957.70
2023-05-05T13:19:19.408Z,100957.85
2023-05-05T13:22:23.408Z,100954.80
2023-05-05T13:25:27.538Z,100946.91
2023-05-05T13:28:31.547Z,100946.02
2023-05-05T13:31:35.663Z,100943.80
2023-05-05T13:34:39.737Z,100945.41
2023-05-05T13:37:44.614Z,100942.16
2023-05-05T13:40:48.632Z,100938.08
2023-05-05T13:43:52.856Z,100937.83
2023-05-05T13:46:56.980Z,100944.88
2023-05-05T13:50:00.985Z,100944.49
2023-05-05T13:53:04.999Z,100945.55
2023-05-05T13:56:09.064Z,100940.80
2023-05-05T13:59:13.329Z,100940.03
2023-05-05T14:02:17.353Z,100941.19
2023-05-05T14:05:21.537Z,100939.41
2023-05-05T14:08:25.485Z,100931.84
2023-05-05T14:11:31.761Z,100930.80
2023-05-05T14:14:36.170Z,100931.79
2023-05-05T14:17:40.087Z,100930.18
2023-05-05T14:20:44.103Z,100933.64
2023-05-05T14:23:48.077Z,100934.66
2023-05-05T14:26:52.625Z,100945.36
2023-05-05T14:29:56.625Z,100944.15
2023-05-05T14:33:01.445Z,100945.15
2023-05-05T14:36:06.149Z,100941.41
2023-05-05T14:39:10.129Z,100934.02
2023-05-05T14:42:14.129Z,100936.48
2023-05-05T14:45:18.152Z,100944.23
2023-05-05T14:48:22.693Z,100945.80
2023-05-05T14:51:26.847Z,100953.23
2023-05-05T14:54:30.814Z,100946.42
2023-05-05T14:57:34.965Z,100943.10
2023-05-05T15:00:38.880Z,100944.27
2023-05-05T15:03:43.001Z,100947.63
2023-05-05T15:06:47.143Z,100959.95
2023-05-05T15:09:51.108Z,100956.73
2023-05-05T15:12:55.144Z,100958.89
2023-05-05T15:15:59.131Z,100963.45
2023-05-05T15:19:03.211Z,100967.26
2023-05-05T15:22:07.176Z,100970.30
2023-05-05T15:25:13.462Z,100965.95
2023-05-05T15:28:18.693Z,100970.60
2023-05-05T15:31:22.726Z,100974.83
2023-05-05T15:34:26.963Z,100980.98
2023-05-05T15:37:31.056Z,100979.92
2023-05-05T15:40:35.700Z,100980.63
2023-05-05T15:43:39.717Z,100984.61
2023-05-05T15:46:43.753Z,100986.70
2023-05-05T15:49:47.739Z,100992.05
2023-05-05T15:52:51.839Z,100992.33
2023-05-05T15:55:55.741Z,100992.88
2023-05-05T15:58:59.785Z,100995.27
2023-05-05T16:02:04.102Z,100993.77
2023-05-05T16:05:08.391Z,100993.01
2023-05-05T16:08:12.760Z,100991.08
2023-05-05T16:11:16.774Z,100987.58
2023-05-05T16:14:20.779Z,100984.70
2023-05-05T16:17:24.884Z,100989.77
2023-05-05T16:20:29.953Z,100983.71
2023-05-05T16:23:33.956Z,100982.86
2023-05-05T16:26:38.025Z,100977.36
2023-05-05T16:29:42.090Z,100974.56
2023-05-05T16:32:47.340Z,100979.86
2023-05-05T16:35:51.358Z,100975.64
2023-05-05T16:38:56.273Z,100976.87
2023-05-05T16:42:00.203Z,100974.30
2023-05-05T16:45:05.150Z,100976.58
2023-05-05T16:48:09.444Z,100978.31
2023-05-05T16:51:13.478Z,100982.31
2023-05-05T16:54:17.493Z,100982.81
2023-05-05T16:57:24.382Z,100983.55
2023-05-05T17:00:28.373Z,100986.88
2023-05-05T17:03:32.410Z,100988.02
2023-05-05T17:06:36.411Z,100989.13
2023-05-05T17:09:40.441Z,100989.59
2023-05-05T17:12:44.509Z,100988.95
2023-05-05T17:15:48.578Z,100992.02
2023-05-05T17:18:54.000Z,100993.27
2023-05-05T17:21:58.042Z,100995.20
2023-05-05T17:25:02.061Z,100998.71
2023-05-05T17:28:07.663Z,101002.05
2023-05-05T17:31:12.646Z,101002.98
2023-05-05T17:34:16.626Z,101004.27
2023-05-05T17:37:20.585Z,101005.38
2023-05-05T17:40:24.595Z,100999.23
2023-05-05T17:43:28.509Z,101008.02
2023-05-05T17:46:32.725Z,101005.80
2023-05-05T17:49:36.744Z,101012.19
2023-05-05T17:52:41.375Z,101017.75
2023-05-05T17:55:46.021Z,101023.05
2023-05-05T17:58:50.021Z,101026.52
2023-05-05T18:01:54.052Z,101027.70
2023-05-05T18:04:58.244Z,101027.34
2023-05-05T18:08:02.469Z,101030.89
2023-05-05T18:11:06.502Z,101030.74
2023-05-05T18:14:10.805Z,101035.31
2023-05-05T18:17:14.771Z,101034.52
2023-05-05T18:20:18.819Z,101038.22
2023-05-05T18:23:22.754Z,101046.45
2023-05-05T18:26:26.815Z,101047.75
2023-05-05T18:29:30.766Z,101051.93
2023-05-05T18:32:34.864Z,101053.91
2023-05-05T18:35:39.009Z,101050.95
2023-05-05T18:38:42.968Z,101052.18
2023-05-05T18:41:47.233Z,101057.77
2023-05-05T18:44:51.283Z,101058.23
2023-05-05T18:47:56.558Z,101061.53
2023-05-05T18:51:02.292Z,101067.27
2023-05-05T18:54:06.602Z,101067.09
2023-05-05T18:57:10.927Z,101065.89
2023-05-05T19:00:15.748Z,101066.56
2023-05-05T19:03:20.111Z,101067.24
2023-05-05T19:06:24.212Z,101066.66
2023-05-05T19:09:28.313Z,101062.77
2023-05-05T19:12:32.383Z,101059.34
2023-05-05T19:15:36.651Z,101062.19
2023-05-05T19:18:41.298Z,101067.41
2023-05-05T19:21:45.311Z,101065.64
2023-05-05T19:24:49.328Z,101066.69
2023-05-05T19:27:53.271Z,101062.07
2023-05-05T19:30:57.605Z,101063.93
2023-05-05T19:34:03.564Z,101060.59
2023-05-05T19:37:07.496Z,101062.82
2023-05-05T19:40:12.887Z,101060.83
2023-05-05T19:43:17.205Z,101061.11
2023-05-05T19:46:21.240Z,101060.81
2023-05-05T19:49:25.300Z,101059.27
2023-05-05T19:52:29.263Z,101064.80
2023-05-05T19:55:33.294Z,101061.96
2023-05-05T19:58:57.493Z,101058.21
2023-05-05T20:02:01.520Z,101059.84
2023-05-05T20:05:06.844Z,101064.02
2023-05-05T20:08:11.222Z,101062.41
2023-05-05T20:11:17.000Z,101061.72
2023-05-05T20:14:21.127Z,101063.79
2023-05-05T20:17:25.872Z,101063.75
2023-05-05T20:20:29.893Z,101066.12
2023-05-05T20:23:34.182Z,101069.30
2023-05-05T20:26:38.204Z,101067.08
2023-05-05T20:29:42.635Z,101072.26
2023-05-05T20:32:46.616Z,101071.15
2023-05-05T20:35:51.011Z,101070.73
2023-05-05T20:38:54.990Z,101069.52
2023-05-05T20:41:59.011Z,101065.60
2023-05-05T20:45:03.574Z,101063.48
2023-05-05T20:48:10.079Z,101064.77
2023-05-05T20:51:14.139Z,101071.27
2023-05-05T20:54:18.042Z,101067.64
2023-05-05T20:57:22.060Z,101064.86
2023-05-05T21:00:26.502Z,101065.86
2023-05-05T21:03:30.526Z,101065.23
2023-05-05T21:06:34.610Z,101063.73
2023-05-05T21:09:38.634Z,101063.08
2023-05-05T21:12:42.605Z,101058.29
2023-05-05T21:15:46.569Z,101056.73
2023-05-05T21:18:50.778Z,101057.36
2023-05-05T21:21:59.331Z,101057.77
2023-05-05T21:25:21.240Z,101058.39
2023-05-05T21:28:25.247Z,101060.77
2023-05-05T21:31:29.225Z,101061.42
2023-05-05T21:34:33.383Z,101063.28
2023-05-05T21:37:38.945Z,101064.10
2023-05-05T21:40:43.047Z,101065.85
2023-05-05T21:43:47.069Z,101068.10
2023-05-05T21:46:52.809Z,101070.79
2023-05-05T21:49:58.051Z,101073.98
2023-05-05T21:53:01.993Z,101069.67
2023-05-05T21:56:09.236Z,101066.98
2023-05-05T21:59:14.389Z,101070.52
2023-05-05T22:02:19.381Z,101069.08
2023-05-05T22:05:23.402Z,101072.35
2023-05-05T22:08:27.389Z,101066.98
2023-05-05T22:11:31.321Z,101068.61
2023-05-05T22:14:35.830Z,101062.20
2023-05-05T22:17:39.959Z,101062.71
2023-05-05T22:20:44.078Z,101062.32
2023-05-05T22:23:48.186Z,101063.59
2023-05-05T22:26:52.403Z,101061.98
2023-05-05T22:29:56.728Z,101063.52
2023-05-05T22:33:00.910Z,101058.83
2023-05-05T22:36:05.121Z,101057.33
2023-05-05T22:39:09.176Z,101058.09
2023-05-05T22:42:13.178Z,101055.77
2023-05-05T22:45:17.317Z,101056.41
2023-05-05T22:48:21.864Z,101053.38
2023-05-05T22:51:25.855Z,101054.92
2023-05-05T22:54:29.788Z,101051.79
2023-05-05T22:57:35.642Z,101048.30
2023-05-05T23:00:39.957Z,101045.57
2023-05-05T23:03:43.983Z,101048.50
2023-05-05T23:06:47.872Z,101044.52
2023-05-05T23:09:51.801Z,101048.61
2023-05-05T23:12:55.762Z,101046.05
2023-05-05T23:15:59.837Z,101048.84
2023-05-05T23:19:03.846Z,101041.86
2023-05-05T23:22:07.912Z,101041.19
2023-05-05T23:25:12.517Z,101039.07
2023-05-05T23:28:17.114Z,101035.24
2023-05-05T23:31:21.032Z,101036.55
2023-05-05T23:34:26.180Z,101036.99
2023-05-05T23:37:30.208Z,101035.70
2023-05-05T23:40:34.420Z,101033.09
2023-05-05T23:43:38.438Z,101034.48
2023-05-05T23:46:42.874Z,101035.23
2023-05-05T23:49:46.978Z,101038.76
2023-05-05T23:52:50.888Z,101039.37
2023-05-05T23:55:54.838Z,101039.28
2023-05-05T23:58:58.816Z,101040.48
